Time;durP1;ratioP1;P1;durP2;ratioP2;P2;SDS_P1;SDS_P2;PMS_P1;PMS_P2;Temp;Humidity;BMP_temperature;BMP_pressure;BME280_temperature;BME280_humidity;BME280_pressure;Samples;Min_cycle;Max_cycle;Signal;HPM_P1;HPM_P2
2022/06/02 00:02:23;;;;;;;2.58;2.15;;;20.30;62.40;;;;;;5090224;28;45191;-65
2022/06/02 00:05:00;;;;;;;3.53;2.30;;;20.30;62.50;;;;;;5090232;28;44560;-66
2022/06/02 00:07:38;;;;;;;2.80;2.13;;;20.30;62.60;;;;;;5088587;28;44884;-66
2022/06/02 00:10:12;;;;;;;3.40;2.10;;;20.30;62.40;;;;;;5088751;28;44833;-66
2022/06/02 00:12:47;;;;;;;2.40;1.90;;;20.30;62.40;;;;;;5089203;28;45191;-66
2022/06/02 00:15:26;;;;;;;3.88;1.95;;;20.40;62.40;;;;;;5089864;28;44650;-66
2022/06/02 00:18:02;;;;;;;3.40;2.05;;;20.30;62.40;;;;;;5089090;28;45155;-66
2022/06/02 00:20:35;;;;;;;4.80;2.17;;;20.30;62.50;;;;;;5088422;28;44670;-66
2022/06/02 00:23:15;;;;;;;2.60;2.30;;;20.30;62.40;;;;;;5080968;28;45220;-66
2022/06/02 00:25:47;;;;;;;2.72;2.03;;;20.30;62.30;;;;;;5073066;28;44815;-66
2022/06/02 00:28:26;;;;;;;2.30;2.00;;;20.30;62.30;;;;;;5071436;28;44700;-66
2022/06/02 00:30:58;;;;;;;3.08;2.03;;;20.30;62.40;;;;;;5082987;28;44661;-66
2022/06/02 00:33:30;;;;;;;3.17;2.45;;;20.30;62.30;;;;;;5093561;28;45231;-66
2022/06/02 00:36:00;;;;;;;3.22;2.40;;;20.30;62.30;;;;;;5093332;28;45357;-66
2022/06/02 00:38:29;;;;;;;3.40;2.33;;;20.30;62.40;;;;;;5079658;28;44688;-66
2022/06/02 00:41:05;;;;;;;3.50;2.22;;;20.30;62.40;;;;;;5093445;28;44754;-66
2022/06/02 00:43:55;;;;;;;2.85;2.30;;;20.30;62.60;;;;;;5093299;28;46552;-66
2022/06/02 00:46:26;;;;;;;3.78;2.20;;;20.30;62.50;;;;;;5078414;28;44592;-66
2022/06/02 00:49:01;;;;;;;2.10;1.70;;;20.30;62.50;;;;;;5075409;28;44623;-65
2022/06/02 00:51:40;;;;;;;2.90;1.98;;;20.30;62.50;;;;;;5092058;28;45106;-66
2022/06/02 01:00:02;;;;;;;2.55;2.10;;;20.30;62.60;;;;;;5090987;28;44781;-66
2022/06/02 01:02:34;;;;;;;3.85;2.20;;;20.30;62.30;;;;;;5093399;28;44616;-66
2022/06/02 01:05:02;;;;;;;3.53;2.25;;;20.30;62.40;;;;;;5092936;28;45254;-66
2022/06/02 01:07:40;;;;;;;2.95;2.05;;;20.30;62.60;;;;;;5091954;28;44836;-66
2022/06/02 01:10:24;;;;;;;3.00;2.33;;;20.30;62.40;;;;;;5090940;28;44608;-66
2022/06/02 01:13:07;;;;;;;4.13;2.35;;;20.30;62.50;;;;;;5078751;28;44796;-66
2022/06/02 01:15:44;;;;;;;2.72;2.33;;;20.30;62.40;;;;;;5093010;28;46521;-66
2022/06/02 01:18:22;;;;;;;2.55;2.10;;;20.30;62.30;;;;;;5092256;28;45006;-66
2022/06/02 01:20:58;;;;;;;2.75;2.20;;;20.30;62.30;;;;;;5072299;28;44622;-66
2022/06/02 01:23:52;;;;;;;2.92;2.50;;;20.30;62.20;;;;;;5069928;28;44591;-65
2022/06/02 01:26:47;;;;;;;3.45;2.55;;;20.30;62.20;;;;;;5075270;28;47033;-66
2022/06/02 01:29:42;;;;;;;2.90;2.25;;;20.30;62.20;;;;;;5070645;28;44608;-65
2022/06/02 01:32:14;;;;;;;2.60;2.28;;;20.30;62.30;;;;;;5081751;28;44651;-65
2022/06/02 01:34:56;;;;;;;3.50;2.13;;;20.30;62.30;;;;;;5091595;28;44818;-66
2022/06/02 01:37:31;;;;;;;2.92;2.38;;;20.30;62.20;;;;;;5091628;28;46612;-66
2022/06/02 01:40:07;;;;;;;2.33;2.10;;;20.30;62.10;;;;;;5090359;28;44811;-66
2022/06/02 01:42:44;;;;;;;3.55;2.78;;;20.30;63.20;;;;;;5092712;28;44713;-66
2022/06/02 01:45:16;;;;;;;3.42;2.63;;;20.30;62.20;;;;;;5077646;28;44796;-66
2022/06/02 01:47:47;;;;;;;3.20;2.42;;;20.30;62.10;;;;;;5084846;28;47069;-65
2022/06/02 01:50:28;;;;;;;2.83;2.40;;;20.30;62.20;;;;;;5091040;28;44974;-66
2022/06/02 01:53:05;;;;;;;4.10;2.72;;;20.30;62.00;;;;;;5092743;28;44562;-66
2022/06/02 01:56:02;;;;;;;3.85;2.67;;;20.30;62.10;;;;;;5089290;28;44859;-66
2022/06/02 01:58:49;;;;;;;4.13;2.92;;;20.30;62.00;;;;;;5080889;28;45624;-66
2022/06/02 02:01:39;;;;;;;3.65;2.30;;;20.30;61.90;;;;;;5092218;28;44791;-66
2022/06/02 02:04:27;;;;;;;4.22;2.70;;;20.30;61.60;;;;;;5089056;28;44561;-66
2022/06/02 02:07:03;;;;;;;3.80;2.50;;;20.30;61.80;;;;;;5091194;28;44689;-66
2022/06/02 02:09:47;;;;;;;3.63;2.65;;;20.30;61.50;;;;;;5091057;28;46493;-65
2022/06/02 02:12:22;;;;;;;3.80;2.70;;;20.30;61.90;;;;;;5088979;28;44807;-66
2022/06/02 02:15:12;;;;;;;4.47;2.70;;;20.30;61.70;;;;;;5092009;28;44655;-66
2022/06/02 02:17:55;;;;;;;4.80;3.42;;;20.30;61.80;;;;;;5091873;28;44876;-66
2022/06/02 02:20:29;;;;;;;3.97;2.90;;;20.30;61.90;;;;;;5089214;28;46698;-65
2022/06/02 02:23:04;;;;;;;3.13;2.80;;;20.30;62.00;;;;;;5088187;28;44679;-66
2022/06/02 02:25:38;;;;;;;2.92;2.53;;;20.30;62.10;;;;;;5091925;28;44944;-66
2022/06/02 02:28:14;;;;;;;3.78;2.78;;;20.30;61.90;;;;;;5081066;28;44900;-65
2022/06/02 02:31:07;;;;;;;3.75;2.70;;;20.30;61.80;;;;;;5071235;28;45478;-66
2022/06/02 02:33:44;;;;;;;3.45;2.92;;;20.30;61.90;;;;;;5085967;28;44826;-66
2022/06/02 02:36:21;;;;;;;4.80;3.15;;;20.30;61.70;;;;;;5090302;28;44781;-66
2022/06/02 02:38:59;;;;;;;4.70;2.97;;;20.30;61.60;;;;;;5091069;28;44750;-66
2022/06/02 02:41:34;;;;;;;3.95;3.20;;;20.30;61.60;;;;;;5073790;28;47731;-66
2022/06/02 02:44:06;;;;;;;5.82;3.10;;;20.30;61.70;;;;;;5071265;28;44587;-65
2022/06/02 02:46:38;;;;;;;3.65;2.78;;;20.30;61.50;;;;;;5081807;28;44628;-66
2022/06/02 02:49:13;;;;;;;3.47;2.80;;;20.20;61.50;;;;;;5088509;28;44707;-66
2022/06/02 02:51:48;;;;;;;4.05;2.90;;;20.30;61.50;;;;;;5091220;28;46528;-66
2022/06/02 02:54:22;;;;;;;4.72;3.03;;;20.30;61.50;;;;;;5090222;28;44625;-66
2022/06/02 02:56:57;;;;;;;3.85;2.92;;;20.30;61.80;;;;;;5071042;28;44633;-66
2022/06/02 02:59:32;;;;;;;3.45;2.60;;;20.30;61.60;;;;;;5072176;28;45012;-66
2022/06/02 03:02:09;;;;;;;4.53;3.03;;;20.20;61.60;;;;;;5091202;28;45174;-66
2022/06/02 03:04:44;;;;;;;4.10;2.80;;;20.30;61.70;;;;;;5091352;28;44610;-66
2022/06/02 03:07:12;;;;;;;5.32;3.42;;;20.30;61.90;;;;;;5089773;28;44990;-65
2022/06/02 03:09:44;;;;;;;4.07;3.25;;;20.30;61.70;;;;;;5088312;28;44742;-66
2022/06/02 03:12:19;;;;;;;4.03;3.33;;;20.30;62.60;;;;;;5089752;28;45286;-66
2022/06/02 03:15:15;;;;;;;4.13;3.15;;;20.30;61.80;;;;;;5088925;28;44880;-66
2022/06/02 03:18:16;;;;;;;4.03;3.20;;;20.30;61.70;;;;;;5091154;28;44618;-66
2022/06/02 03:20:54;;;;;;;3.97;3.17;;;20.30;61.60;;;;;;5081863;28;44916;-66
2022/06/02 03:23:47;;;;;;;5.53;3.10;;;20.20;61.40;;;;;;5075045;28;46585;-66
2022/06/02 03:26:23;;;;;;;3.92;2.80;;;20.30;61.80;;;;;;5090775;28;44609;-66
2022/06/02 03:29:01;;;;;;;4.07;3.22;;;20.30;61.30;;;;;;5088664;28;44694;-66
2022/06/02 03:31:37;;;;;;;4.55;3.35;;;20.20;61.20;;;;;;5090408;28;44620;-66
2022/06/02 03:34:14;;;;;;;4.60;3.78;;;20.30;62.60;;;;;;5088953;28;46910;-66
2022/06/02 03:37:04;;;;;;;5.18;3.78;;;20.20;61.50;;;;;;5091000;28;44555;-66
2022/06/02 03:39:46;;;;;;;4.10;3.47;;;20.20;61.40;;;;;;5089891;28;44659;-66
2022/06/02 03:42:31;;;;;;;6.07;4.03;;;20.20;61.40;;;;;;5088793;28;44655;-66
2022/06/02 03:45:11;;;;;;;4.68;3.63;;;20.20;61.40;;;;;;5090382;28;46601;-66
2022/06/02 03:47:53;;;;;;;5.28;3.47;;;20.30;61.60;;;;;;5076313;28;44964;-66
2022/06/02 03:50:34;;;;;;;4.55;3.55;;;20.20;61.30;;;;;;5085221;28;44670;-66
2022/06/02 03:53:17;;;;;;;3.88;3.47;;;20.20;61.50;;;;;;5090950;28;44567;-66
2022/06/02 03:55:57;;;;;;;4.70;3.72;;;20.30;61.40;;;;;;5088983;28;46528;-66
2022/06/02 03:58:43;;;;;;;5.28;4.07;;;20.20;61.40;;;;;;5079466;28;44926;-66
2022/06/02 04:01:13;;;;;;;7.22;3.67;;;20.30;61.60;;;;;;5084470;28;44657;-66
2022/06/02 04:03:53;;;;;;;5.40;3.45;;;20.20;61.40;;;;;;5094456;28;44936;-66
2022/06/02 04:06:36;;;;;;;4.78;3.42;;;20.30;61.50;;;;;;5091420;28;46574;-66
2022/06/02 04:09:13;;;;;;;4.43;3.30;;;20.30;61.50;;;;;;5093192;28;45465;-66
2022/06/02 04:18:06;;;;;;;4.85;3.47;;;20.30;61.50;;;;;;5097927;22;45143;-66
2022/06/02 04:20:42;;;;;;;5.28;3.72;;;20.30;61.50;;;;;;5081588;27;45148;-66
2022/06/02 04:23:48;;;;;;;5.53;3.75;;;20.20;61.40;;;;;;5091450;28;45245;-66
2022/06/02 04:26:36;;;;;;;4.93;4.15;;;20.20;61.20;;;;;;5091587;28;45112;-66
2022/06/02 04:29:19;;;;;;;6.28;4.30;;;20.20;61.30;;;;;;5079981;28;46396;-66
2022/06/02 04:31:54;;;;;;;5.72;4.00;;;20.30;61.40;;;;;;5091087;28;45202;-66
2022/06/02 04:34:31;;;;;;;5.05;4.15;;;20.20;61.40;;;;;;5089315;28;45189;-66
2022/06/02 04:37:08;;;;;;;5.32;3.90;;;20.30;61.50;;;;;;5088352;28;45316;-65
2022/06/02 04:39:44;;;;;;;5.57;4.18;;;20.20;61.80;;;;;;5089858;27;45255;-66
2022/06/02 04:42:23;;;;;;;4.22;3.45;;;20.20;61.70;;;;;;5090514;28;45288;-66
2022/06/02 04:45:01;;;;;;;7.00;3.55;;;20.20;61.50;;;;;;5087678;28;45107;-66
2022/06/02 04:47:38;;;;;;;5.15;3.65;;;20.20;61.50;;;;;;5073287;28;45307;-65
2022/06/02 04:50:12;;;;;;;6.40;3.72;;;20.30;61.40;;;;;;5082332;28;45487;-66
2022/06/02 04:52:49;;;;;;;4.78;3.85;;;20.20;61.70;;;;;;5090595;28;45238;-66
2022/06/02 04:55:24;;;;;;;4.55;3.67;;;20.20;61.50;;;;;;5089537;28;45186;-66
2022/06/02 04:58:00;;;;;;;4.45;3.60;;;20.20;61.60;;;;;;5078659;28;45362;-66
2022/06/02 05:00:38;;;;;;;5.25;3.50;;;20.30;61.70;;;;;;5068757;28;47600;-66
2022/06/02 05:03:14;;;;;;;5.30;3.72;;;20.30;61.60;;;;;;5070323;28;45199;-66
2022/06/02 05:05:49;;;;;;;5.45;3.35;;;20.30;61.80;;;;;;5079856;28;45123;-66
2022/06/02 05:08:50;;;;;;;6.05;3.90;;;20.30;61.90;;;;;;5072896;28;45130;-66
2022/06/02 05:11:26;;;;;;;4.55;3.50;;;20.30;61.70;;;;;;5077576;28;45303;-66
2022/06/02 05:14:03;;;;;;;8.80;4.25;;;20.30;61.80;;;;;;5090538;28;45309;-66
2022/06/02 05:16:41;;;;;;;5.30;3.03;;;20.30;61.70;;;;;;5089923;28;45215;-66
2022/06/02 05:19:30;;;;;;;6.35;4.47;;;20.30;61.80;;;;;;5089424;28;45237;-66
2022/06/02 05:22:39;;;;;;;6.15;4.43;;;20.30;61.80;;;;;;5088663;27;47148;-66
2022/06/02 05:25:30;;;;;;;6.07;4.50;;;20.30;61.90;;;;;;5089984;28;46483;-66
2022/06/02 05:28:35;;;;;;;9.80;4.95;;;20.20;61.90;;;;;;5071539;27;45264;-66
2022/06/02 05:31:29;;;;;;;6.43;4.03;;;20.20;62.00;;;;;;5069930;28;45374;-66
2022/06/02 05:34:28;;;;;;;5.68;4.60;;;20.30;62.10;;;;;;5069306;28;48549;-66
2022/06/02 05:37:08;;;;;;;6.25;4.70;;;20.20;62.20;;;;;;5074332;28;45621;-66
2022/06/02 05:39:46;;;;;;;6.50;4.68;;;20.20;62.20;;;;;;5089023;28;45238;-66
2022/06/02 05:42:27;;;;;;;5.75;4.10;;;20.20;62.20;;;;;;5087197;28;45238;-66
2022/06/02 05:45:11;;;;;;;4.60;3.80;;;20.20;62.20;;;;;;5086418;28;45997;-66
2022/06/02 05:47:49;;;;;;;5.47;4.47;;;20.20;62.10;;;;;;5088180;28;45290;-66
2022/06/02 05:50:28;;;;;;;6.38;4.82;;;20.30;62.10;;;;;;5088358;28;45464;-66
2022/06/02 05:53:03;;;;;;;6.63;4.35;;;20.30;62.20;;;;;;5090110;28;45214;-66
2022/06/02 05:55:39;;;;;;;5.28;4.13;;;20.20;62.10;;;;;;5085993;28;46168;-66
2022/06/02 05:58:35;;;;;;;9.30;4.78;;;20.30;62.30;;;;;;5088755;28;45344;-66
2022/06/02 06:01:13;;;;;;;5.43;4.40;;;20.30;62.20;;;;;;5088158;28;45219;-66
2022/06/02 06:04:19;;;;;;;6.63;4.20;;;20.20;62.10;;;;;;5087956;28;45303;-66
2022/06/02 06:06:53;;;;;;;7.38;5.13;;;20.30;62.20;;;;;;5003338;28;45304;-66
2022/06/02 06:09:34;;;;;;;6.78;4.90;;;20.30;62.70;;;;;;5072508;28;45418;-66
2022/06/02 06:12:34;;;;;;;5.07;4.18;;;20.30;62.40;;;;;;5089347;28;45323;-66
2022/06/02 06:15:09;;;;;;;5.28;4.15;;;20.30;62.40;;;;;;5088154;28;45178;-66
2022/06/02 06:17:42;;;;;;;5.90;4.88;;;20.30;62.40;;;;;;5088697;27;46446;-66
2022/06/02 06:20:33;;;;;;;6.47;4.63;;;20.20;62.40;;;;;;5086702;27;45379;-66
2022/06/02 06:23:22;;;;;;;6.85;5.07;;;20.30;62.50;;;;;;5089407;28;45205;-66
2022/06/02 06:26:05;;;;;;;5.25;4.25;;;20.20;62.50;;;;;;5088955;28;45337;-66
2022/06/02 06:28:41;;;;;;;7.65;5.05;;;20.30;62.60;;;;;;5083327;28;47073;-66
2022/06/02 06:31:18;;;;;;;7.97;5.38;;;20.20;62.60;;;;;;5089198;27;45205;-66
2022/06/02 06:33:53;;;;;;;6.03;4.40;;;20.20;62.60;;;;;;5088167;27;45161;-66
2022/06/02 06:36:44;;;;;;;8.48;5.43;;;20.20;62.70;;;;;;5088439;28;45464;-66
2022/06/02 06:39:20;;;;;;;9.77;5.25;;;20.20;62.60;;;;;;5088458;28;45160;-66
2022/06/02 06:42:03;;;;;;;6.78;4.78;;;20.20;62.60;;;;;;5087839;28;45207;-66
2022/06/02 06:44:38;;;;;;;6.18;4.28;;;20.30;62.60;;;;;;5089142;28;45296;-66
2022/06/02 06:47:09;;;;;;;6.30;4.55;;;20.30;62.80;;;;;;5079694;28;45493;-66
2022/06/02 06:49:51;;;;;;;6.25;4.38;;;20.30;62.70;;;;;;5087144;28;47059;-66
2022/06/02 06:52:39;;;;;;;6.47;4.45;;;20.30;62.80;;;;;;5088855;27;45189;-66
2022/06/02 06:55:20;;;;;;;7.40;4.55;;;20.30;62.70;;;;;;5066465;28;45265;-66
2022/06/02 06:57:52;;;;;;;5.97;4.57;;;20.30;62.80;;;;;;5068689;28;45510;-66
2022/06/02 07:00:24;;;;;;;4.75;3.67;;;20.30;62.80;;;;;;5083331;28;45314;-66
2022/06/02 07:03:03;;;;;;;6.03;4.60;;;20.30;63.00;;;;;;5088937;28;45178;-66
2022/06/02 07:05:36;;;;;;;6.15;4.60;;;20.30;62.80;;;;;;5082120;28;45266;-66
2022/06/02 07:08:13;;;;;;;8.55;5.25;;;20.30;62.90;;;;;;5088390;28;45302;-66
2022/06/02 07:10:48;;;;;;;8.10;5.10;;;20.30;62.90;;;;;;5085956;27;46283;-66
2022/06/02 07:13:26;;;;;;;7.13;4.60;;;20.30;62.90;;;;;;5073255;28;45634;-66
2022/06/02 07:15:56;;;;;;;9.02;5.13;;;20.30;63.00;;;;;;5087888;28;45164;-66
2022/06/02 07:18:33;;;;;;;9.32;4.40;;;20.30;63.10;;;;;;5088090;28;45212;-66
2022/06/02 07:21:07;;;;;;;7.13;4.38;;;20.30;63.20;;;;;;5086712;28;47396;-66
2022/06/02 07:23:47;;;;;;;6.63;4.47;;;20.30;63.20;;;;;;5067316;28;45223;-66
2022/06/02 07:26:29;;;;;;;9.05;5.00;;;20.30;63.30;;;;;;5068006;28;45204;-66
2022/06/02 07:29:05;;;;;;;7.85;5.07;;;20.30;63.30;;;;;;5064221;28;45133;-66
2022/06/02 07:31:50;;;;;;;10.30;4.68;;;20.30;63.30;;;;;;5073348;27;46197;-66
2022/06/02 07:34:35;;;;;;;9.15;4.75;;;20.30;63.30;;;;;;5087952;28;45225;-66
2022/06/02 07:37:17;;;;;;;6.28;3.83;;;20.30;63.30;;;;;;5086152;28;45208;-66
2022/06/02 07:40:09;;;;;;;7.72;4.53;;;20.30;63.30;;;;;;5087539;28;45251;-66
2022/06/02 07:42:52;;;;;;;6.32;3.80;;;20.30;63.30;;;;;;5087667;28;46590;-66
2022/06/02 07:45:32;;;;;;;5.90;3.53;;;20.30;63.30;;;;;;5083193;28;45144;-66
2022/06/02 07:48:41;;;;;;;5.35;3.35;;;20.30;63.30;;;;;;5067540;28;45286;-66
2022/06/02 07:51:17;;;;;;;6.15;3.30;;;20.30;63.30;;;;;;5068037;28;45516;-66
2022/06/02 07:54:02;;;;;;;4.13;3.00;;;20.30;63.30;;;;;;5087767;28;47338;-66
2022/06/02 07:56:44;;;;;;;7.20;4.13;;;20.30;63.20;;;;;;5084981;28;45167;-66
2022/06/02 07:59:23;;;;;;;9.45;4.18;;;20.40;63.30;;;;;;5084818;28;45509;-66
2022/06/02 08:02:06;;;;;;;6.10;3.65;;;20.40;63.30;;;;;;5088083;28;45119;-66
2022/06/02 08:04:43;;;;;;;4.68;3.20;;;20.40;63.30;;;;;;5087729;28;48157;-66
2022/06/02 08:07:15;;;;;;;5.18;3.40;;;20.30;63.10;;;;;;5081976;28;46022;-66
2022/06/02 08:09:52;;;;;;;6.22;3.60;;;20.40;63.30;;;;;;5085441;27;45112;-66
2022/06/02 08:12:27;;;;;;;5.10;3.50;;;20.30;63.20;;;;;;5071969;28;45487;-66
2022/06/02 08:15:11;;;;;;;6.05;3.22;;;20.30;63.20;;;;;;5066853;28;45428;-66
2022/06/02 08:17:40;;;;;;;3.75;2.55;;;20.30;63.10;;;;;;5070588;28;45466;-66
2022/06/02 08:20:19;;;;;;;5.00;2.97;;;20.30;63.20;;;;;;5084921;28;45226;-66
2022/06/02 08:22:56;;;;;;;5.00;3.13;;;20.30;63.20;;;;;;5066737;28;45648;-65
2022/06/02 08:25:29;;;;;;;4.85;3.33;;;20.30;63.20;;;;;;5080581;28;46541;-66
2022/06/02 08:28:30;;;;;;;5.82;2.75;;;20.30;63.20;;;;;;5084074;28;45213;-66
2022/06/02 08:31:08;;;;;;;3.67;3.10;;;20.30;63.20;;;;;;5064453;28;45463;-66
2022/06/02 08:33:44;;;;;;;6.55;3.30;;;20.30;63.10;;;;;;5067028;28;45373;-66
2022/06/02 08:36:14;;;;;;;5.28;3.22;;;20.30;63.10;;;;;;5079857;28;45171;-66
2022/06/02 08:39:26;;;;;;;5.43;3.03;;;20.30;63.00;;;;;;5084263;28;45166;-66
2022/06/02 08:42:26;;;;;;;4.07;3.03;;;20.30;62.90;;;;;;5079881;27;45599;-66
2022/06/02 08:45:17;;;;;;;4.43;3.13;;;20.30;62.90;;;;;;5087203;27;45310;-66
2022/06/02 08:48:17;;;;;;;6.35;3.78;;;20.30;62.80;;;;;;5075283;28;46166;-66
2022/06/02 08:51:19;;;;;;;2.75;2.30;;;20.30;62.70;;;;;;5030065;27;45507;-66
2022/06/02 08:54:24;;;;;;;3.50;2.58;;;20.40;62.70;;;;;;5070239;28;45218;-66
2022/06/02 08:57:33;;;;;;;3.53;2.00;;;20.30;62.40;;;;;;5074501;28;45301;-66
2022/06/02 09:00:24;;;;;;;3.10;2.10;;;20.40;62.40;;;;;;5089494;28;47068;-66
2022/06/02 09:06:26;;;;;;;2.28;1.70;;;20.40;63.40;;;;;;5088909;27;45295;-67
2022/06/02 09:09:35;;;;;;;2.00;1.60;;;20.30;62.40;;;;;;5038270;28;45293;-67
2022/06/02 09:12:29;;;;;;;3.45;1.63;;;20.30;62.60;;;;;;5030641;27;45425;-67
2022/06/02 09:15:20;;;;;;;2.10;1.60;;;20.30;62.50;;;;;;5037025;27;45421;-67
2022/06/02 09:18:03;;;;;;;2.80;1.40;;;20.30;62.50;;;;;;5040471;28;47127;-67
2022/06/02 09:20:45;;;;;;;4.10;1.90;;;20.30;62.60;;;;;;5037786;28;45264;-67
2022/06/02 09:23:36;;;;;;;2.55;1.60;;;20.30;62.60;;;;;;5020424;28;45484;-67
2022/06/02 09:26:18;;;;;;;4.25;1.67;;;20.30;62.60;;;;;;5019262;28;45255;-67
2022/06/02 09:29:21;;;;;;;2.95;1.77;;;20.30;62.60;;;;;;5032515;28;47094;-67
2022/06/02 09:31:59;;;;;;;2.65;2.00;;;20.30;62.60;;;;;;5040847;28;45300;-67
2022/06/02 09:34:40;;;;;;;2.95;1.50;;;20.30;62.20;;;;;;5039799;28;45158;-67
2022/06/02 09:37:53;;;;;;;3.45;1.80;;;20.40;62.10;;;;;;5038409;27;45309;-67
2022/06/02 09:40:42;;;;;;;3.88;1.95;;;20.40;61.90;;;;;;5039635;28;46764;-67
2022/06/02 09:43:34;;;;;;;4.55;1.90;;;20.40;61.70;;;;;;5032802;28;45381;-67
2022/06/02 09:46:17;;;;;;;4.10;1.75;;;20.40;62.70;;;;;;5039146;28;45230;-67
2022/06/02 09:48:59;;;;;;;1.80;1.48;;;20.40;61.50;;;;;;5036712;27;45451;-67
2022/06/02 09:51:40;;;;;;;3.53;1.80;;;20.40;61.40;;;;;;5040543;28;46498;-67
2022/06/02 09:54:29;;;;;;;1.75;1.30;;;20.40;61.10;;;;;;5038095;28;45202;-67
2022/06/02 10:00:18;;;;;;;3.58;1.52;;;20.40;61.00;;;;;;5028191;28;45580;-67
2022/06/02 10:03:03;;;;;;;1.65;1.48;;;20.40;61.60;;;;;;5040026;28;45166;-67
2022/06/02 10:05:48;;;;;;;2.42;1.48;;;20.40;61.60;;;;;;5038892;27;45751;-67
2022/06/02 10:08:26;;;;;;;2.28;1.65;;;20.40;61.60;;;;;;5038247;28;45216;-67
2022/06/02 10:11:07;;;;;;;2.08;1.40;;;20.40;61.70;;;;;;5047147;27;45254;-67
2022/06/02 10:14:03;;;;;;;1.60;1.23;;;20.40;61.90;;;;;;5026041;27;45490;-67
2022/06/02 10:16:55;;;;;;;1.02;0.68;;;20.40;61.90;;;;;;5008704;27;45346;-67
2022/06/02 10:20:01;;;;;;;2.45;1.70;;;20.40;62.00;;;;;;5006129;27;45331;-66
2022/06/02 10:22:40;;;;;;;2.38;1.75;;;20.40;61.70;;;;;;5026985;27;45153;-66
2022/06/02 10:25:38;;;;;;;2.05;1.85;;;20.40;61.90;;;;;;5042844;27;46222;-66
2022/06/02 10:28:39;;;;;;;4.07;2.40;;;20.40;62.00;;;;;;5032188;27;45370;-67
2022/06/02 10:31:35;;;;;;;4.43;2.90;;;20.40;62.10;;;;;;5032042;27;45339;-67
2022/06/02 10:34:35;;;;;;;1.50;1.40;;;20.40;62.30;;;;;;5031084;27;45143;-67
2022/06/02 10:37:24;;;;;;;4.45;2.15;;;20.40;61.80;;;;;;4997039;27;47443;-66
2022/06/02 10:40:11;;;;;;;2.47;2.05;;;20.50;61.80;;;;;;5024783;27;45329;-66
2022/06/02 10:43:00;;;;;;;4.60;2.53;;;20.40;62.10;;;;;;5032916;27;45667;-66
2022/06/02 10:45:58;;;;;;;3.28;1.98;;;20.40;62.00;;;;;;5014611;27;45651;-66
2022/06/02 10:48:58;;;;;;;1.77;1.30;;;20.50;61.90;;;;;;5016928;27;45550;-66
2022/06/02 10:52:05;;;;;;;2.42;1.92;;;20.50;61.90;;;;;;5007400;27;45595;-65
2022/06/02 10:55:14;;;;;;;2.35;1.70;;;20.50;62.00;;;;;;4997472;27;45305;-65
2022/06/02 10:58:07;;;;;;;1.55;1.02;;;20.50;61.80;;;;;;5023067;27;45353;-66
2022/06/02 11:00:56;;;;;;;1.02;0.88;;;20.50;61.80;;;;;;5031592;27;47854;-66
2022/06/02 11:03:52;;;;;;;1.45;1.35;;;20.40;61.70;;;;;;5028937;27;45606;-66
2022/06/02 11:07:15;;;;;;;1.30;1.00;;;20.40;61.70;;;;;;5040067;27;45425;-65
2022/06/02 11:10:20;;;;;;;1.52;1.30;;;20.40;61.80;;;;;;5053608;27;45275;-66
2022/06/02 11:13:16;;;;;;;1.98;1.40;;;20.40;61.70;;;;;;5099285;27;45300;-66
2022/06/02 11:16:25;;;;;;;2.47;1.45;;;20.40;61.70;;;;;;5100096;27;45386;-66
2022/06/02 11:19:17;;;;;;;2.50;1.20;;;20.40;61.50;;;;;;5021661;27;45184;-66
2022/06/02 11:22:29;;;;;;;1.10;0.90;;;20.40;61.50;;;;;;5025849;28;45306;-66
2022/06/02 11:25:20;;;;;;;2.25;1.27;;;20.40;61.60;;;;;;4979705;28;46276;-66
2022/06/02 11:28:15;;;;;;;2.33;1.50;;;20.40;61.20;;;;;;5020315;28;46109;-66
2022/06/02 11:31:18;;;;;;;2.13;1.10;;;20.40;61.10;;;;;;5029321;27;45388;-66
2022/06/02 11:34:03;;;;;;;2.10;1.08;;;20.40;61.00;;;;;;5036646;27;45475;-65
2022/06/02 11:37:17;;;;;;;3.33;1.55;;;20.40;61.00;;;;;;5016731;27;46175;-66
2022/06/02 11:40:14;;;;;;;1.70;1.20;;;20.40;60.90;;;;;;5023705;27;46399;-65
2022/06/02 11:42:57;;;;;;;1.70;1.02;;;20.40;60.80;;;;;;5024660;27;45258;-65
2022/06/02 11:45:40;;;;;;;0.80;0.80;;;20.50;60.90;;;;;;5023588;27;45707;-65
2022/06/02 11:48:22;;;;;;;1.17;1.00;;;20.50;60.80;;;;;;5020635;27;46203;-65
2022/06/02 11:51:15;;;;;;;2.38;1.52;;;20.50;60.70;;;;;;5023263;27;45530;-66
2022/06/02 11:54:06;;;;;;;2.80;1.33;;;20.50;61.60;;;;;;4995338;27;45509;-65
2022/06/02 11:56:45;;;;;;;2.67;1.60;;;20.50;60.50;;;;;;5026541;27;45294;-65
2022/06/02 11:59:47;;;;;;;2.40;1.55;;;20.50;60.80;;;;;;5055944;27;46215;-65
2022/06/02 12:02:36;;;;;;;0.80;0.80;;;20.50;60.90;;;;;;5055015;27;45309;-65
2022/06/02 12:05:40;;;;;;;1.55;1.17;;;20.50;61.10;;;;;;5019341;27;45489;-65
2022/06/02 12:08:43;;;;;;;1.25;1.00;;;20.50;61.10;;;;;;4987626;27;45680;-65
2022/06/02 12:11:41;;;;;;;1.77;1.17;;;20.50;60.90;;;;;;4990526;27;46300;-65
2022/06/02 12:14:34;;;;;;;2.10;1.40;;;20.50;60.70;;;;;;5048766;27;45211;-65
2022/06/02 12:17:23;;;;;;;2.08;1.10;;;20.50;60.70;;;;;;5022501;27;45132;-65
2022/06/02 12:20:03;;;;;;;1.20;1.02;;;20.40;60.80;;;;;;5018233;27;45337;-65
2022/06/02 12:22:46;;;;;;;1.05;0.95;;;20.50;60.90;;;;;;5005367;27;45461;-65
2022/06/02 12:25:43;;;;;;;2.47;0.90;;;20.50;61.00;;;;;;5019172;27;45254;-65
2022/06/02 12:28:45;;;;;;;1.17;0.90;;;20.50;60.90;;;;;;5069201;27;45265;-65
2022/06/02 12:31:56;;;;;;;2.08;0.90;;;20.40;60.50;;;;;;5020309;27;45370;-65
2022/06/02 12:34:57;;;;;;;1.20;0.80;;;20.50;60.50;;;;;;5018578;28;45299;-65
2022/06/02 12:38:05;;;;;;;1.30;1.00;;;20.50;60.50;;;;;;5023665;28;45292;-65
2022/06/02 12:40:39;;;;;;;1.27;1.00;;;20.50;60.20;;;;;;5019837;28;45339;-65
2022/06/02 12:43:38;;;;;;;1.45;0.80;;;20.50;60.20;;;;;;5023930;28;45251;-65
2022/06/02 12:46:23;;;;;;;1.00;0.80;;;20.50;60.40;;;;;;5020281;28;45281;-65
2022/06/02 12:49:25;;;;;;;0.90;0.80;;;20.50;60.40;;;;;;5020301;27;46429;-65
2022/06/02 12:52:31;;;;;;;0.80;0.70;;;20.50;60.30;;;;;;5023458;28;45469;-65
2022/06/02 12:55:31;;;;;;;0.98;0.80;;;20.50;60.70;;;;;;5020474;28;45370;-65
2022/06/02 12:58:50;;;;;;;1.07;0.97;;;20.50;61.00;;;;;;5022492;28;45229;-65
2022/06/02 13:01:42;;;;;;;2.22;0.95;;;20.50;60.80;;;;;;5025102;27;45192;-65
2022/06/02 13:04:45;;;;;;;1.30;0.93;;;20.40;61.00;;;;;;5100434;27;45333;-63
2022/06/02 13:07:45;;;;;;;2.97;0.85;;;20.50;61.00;;;;;;5018027;27;45239;-64
2022/06/02 13:10:45;;;;;;;1.73;1.10;;;20.50;62.20;;;;;;5020191;28;45194;-65
2022/06/02 13:13:43;;;;;;;3.10;1.00;;;20.50;61.00;;;;;;5026243;27;45328;-65
2022/06/02 13:16:52;;;;;;;0.60;0.60;;;20.60;60.80;;;;;;5044428;27;45164;-65
2022/06/02 13:20:04;;;;;;;3.67;0.80;;;20.60;60.90;;;;;;5018878;27;45701;-65
2022/06/02 13:23:04;;;;;;;1.25;0.82;;;20.60;60.80;;;;;;5058384;27;47233;-65
2022/06/02 13:26:01;;;;;;;1.00;0.82;;;20.60;60.80;;;;;;5022003;28;45400;-65
2022/06/02 13:28:55;;;;;;;1.17;0.80;;;20.60;60.80;;;;;;5017790;28;46302;-65
2022/06/02 13:31:59;;;;;;;0.98;0.80;;;20.60;60.90;;;;;;5016336;28;45270;-65
2022/06/02 13:35:03;;;;;;;1.15;0.63;;;20.60;61.10;;;;;;5015701;28;46626;-66
2022/06/02 13:38:10;;;;;;;2.00;0.70;;;20.60;61.00;;;;;;5017367;28;45364;-66
2022/06/02 13:40:51;;;;;;;1.70;0.80;;;20.60;60.90;;;;;;5018391;28;45231;-66
2022/06/02 13:43:49;;;;;;;0.95;0.70;;;20.60;60.80;;;;;;5020231;27;45314;-66
2022/06/02 13:46:37;;;;;;;2.00;0.90;;;20.60;60.80;;;;;;5021745;28;47139;-66
2022/06/02 13:49:59;;;;;;;0.70;0.63;;;20.60;60.80;;;;;;5021668;28;45255;-66
2022/06/02 13:53:02;;;;;;;1.23;0.80;;;20.60;60.90;;;;;;5017713;27;45364;-66
2022/06/02 13:59:06;;;;;;;1.25;0.70;;;20.60;61.20;;;;;;5027380;27;45275;-66
2022/06/02 14:01:56;;;;;;;1.23;0.80;;;20.50;61.20;;;;;;5016354;28;47123;-65
2022/06/02 14:04:51;;;;;;;0.60;0.60;;;20.50;61.20;;;;;;5021374;27;45743;-65
2022/06/02 14:07:35;;;;;;;0.70;0.60;;;20.50;61.00;;;;;;5047483;27;45251;-66
2022/06/02 14:10:24;;;;;;;0.82;0.60;;;20.50;61.20;;;;;;5067003;27;45473;-66
2022/06/02 14:13:06;;;;;;;3.47;0.70;;;20.50;61.20;;;;;;5023988;27;45156;-66
2022/06/02 14:15:48;;;;;;;0.90;0.60;;;20.50;61.20;;;;;;5013128;28;45112;-66
2022/06/02 14:18:32;;;;;;;1.25;0.75;;;20.50;61.10;;;;;;5020650;28;45236;-66
2022/06/02 14:21:08;;;;;;;0.75;0.50;;;20.50;61.10;;;;;;5024268;27;48250;-66
2022/06/02 14:23:49;;;;;;;0.77;0.63;;;20.50;60.80;;;;;;5045945;27;45932;-66
2022/06/02 14:26:24;;;;;;;1.00;0.70;;;20.50;60.60;;;;;;5025641;27;45258;-66
2022/06/02 14:29:04;;;;;;;0.77;0.70;;;20.50;60.60;;;;;;5031967;27;46485;-66
2022/06/02 14:31:41;;;;;;;0.88;0.70;;;20.50;60.30;;;;;;5025776;27;47908;-66
2022/06/02 14:34:20;;;;;;;0.52;0.52;;;20.50;60.00;;;;;;5024418;27;45287;-65
2022/06/02 14:36:56;;;;;;;1.05;0.60;;;20.60;60.30;;;;;;5033562;27;45290;-66
2022/06/02 14:39:33;;;;;;;0.88;0.60;;;20.60;60.30;;;;;;5025519;27;45202;-66
2022/06/02 14:43:06;;;;;;;2.57;0.70;;;20.60;60.20;;;;;;5060357;27;46424;-63
2022/06/02 14:45:56;;;;;;;0.75;0.50;;;20.60;60.70;;;;;;5019629;27;45277;-63